Terminal Aerodrome Forecast
Issued by NWS Tampa Bay Area, FL

Home | Current Version | Previous Version | Text Only | Print | Product List | Glossary Off
Versions: 1 2 3 4 5 6 7 8 9 10 11 12

000
FTUS42 KTBW 241734
TAFSRQ
TAF
KSRQ 241734Z 2418/2518 10013G20KT P6SM BKN060
     FM242300 09009KT P6SM FEW050
     FM250600 09007KT P6SM SCT250
     FM251400 12011G17KT P6SM SCT250=

USA.gov is the U.S. government's official web portal to all federal, state and local government web resources and services.